Arlington, Oregon
Current Conditions -  °F | °C
As of 5:53 PM on Monday 24 Nov 2014 (Local Time) from KHRI Reporting Station
Light Rain Light Rain  
Wind Chill: 43°   Ceiling: 6000
Heat Index: 46°   Visibility: 10mi
Dew Point: 41°   Wind: 6mph
Humidity: 83%   Direction: 120°ESE
Pressure: 30.21"   Gusts: NA
Location:  45.72°N, 120.2°W
Report Text: KHRI 250153Z AUTO 12005KT 10SM -RA OVC060 08/05 A3021 RMK AO2 RAB25 SLP231 P0000 T00780050
Loading
Personal Weather Stations






























Interactive Weather Map New forecast layout! Learn more

10-Day Weather Forecast

Advertisements
Track Severe Weather on mobile